createdAt,value
2023-05-10T00:01:22.936Z,100.00
2023-05-10T00:03:50.627Z,100.00
2023-05-10T00:06:18.328Z,100.00
2023-05-10T00:08:46.904Z,100.00
2023-05-10T00:11:14.513Z,100.00
2023-05-10T00:13:42.211Z,100.00
2023-05-10T00:16:11.149Z,100.00
2023-05-10T00:18:38.761Z,100.00
2023-05-10T00:21:06.847Z,100.00
2023-05-10T00:23:34.395Z,100.00
2023-05-10T00:26:01.920Z,100.00
2023-05-10T00:28:29.537Z,100.00
2023-05-10T00:30:57.849Z,100.00
2023-05-10T00:33:26.860Z,100.00
2023-05-10T00:35:54.447Z,100.00
2023-05-10T00:38:22.040Z,100.00
2023-05-10T00:40:49.735Z,100.00
2023-05-10T00:43:25.239Z,100.00
2023-05-10T00:45:53.023Z,100.00
2023-05-10T00:48:21.109Z,100.00
2023-05-10T00:50:50.323Z,100.00
2023-05-10T00:53:18.774Z,100.00
2023-05-10T00:55:46.620Z,100.00
2023-05-10T00:58:14.895Z,100.00
2023-05-10T01:00:44.370Z,100.00
2023-05-10T01:03:12.410Z,100.00
2023-05-10T01:05:40.169Z,100.00
2023-05-10T01:08:09.546Z,100.00
2023-05-10T01:10:37.191Z,100.00
2023-05-10T01:13:05.032Z,100.00
2023-05-10T01:15:33.785Z,100.00
2023-05-10T01:18:02.386Z,100.00
2023-05-10T01:20:37.592Z,100.00
2023-05-10T01:23:33.509Z,100.00
2023-05-10T01:26:26.300Z,100.00
2023-05-10T01:29:19.596Z,100.00
2023-05-10T01:32:16.877Z,100.00
2023-05-10T01:34:53.534Z,100.00
2023-05-10T01:37:27.162Z,100.00
2023-05-10T01:40:03.303Z,100.00
2023-05-10T01:42:36.848Z,100.00
2023-05-10T01:45:13.195Z,100.00
2023-05-10T01:47:45.350Z,100.00
2023-05-10T01:50:23.178Z,100.00
2023-05-10T01:52:55.464Z,100.00
2023-05-10T01:55:26.667Z,100.00
2023-05-10T01:58:00.924Z,100.00
2023-05-10T02:00:30.707Z,100.00
2023-05-10T02:03:02.273Z,100.00
2023-05-10T02:05:31.698Z,100.00
2023-05-10T02:08:01.675Z,100.00
2023-05-10T02:10:30.490Z,100.00
2023-05-10T02:13:01.301Z,100.00
2023-05-10T02:15:30.432Z,100.00
2023-05-10T02:18:01.772Z,100.00
2023-05-10T02:20:30.362Z,100.00
2023-05-10T02:22:59.473Z,100.00
2023-05-10T02:25:28.908Z,100.00
2023-05-10T02:27:58.794Z,100.00
2023-05-10T02:30:27.206Z,100.00
2023-05-10T02:41:23.395Z,100.00
2023-05-10T02:43:52.657Z,100.00
2023-05-10T02:46:20.471Z,100.00
2023-05-10T02:48:48.104Z,100.00
2023-05-10T02:51:18.795Z,100.00
2023-05-10T02:53:48.848Z,100.00
2023-05-10T02:56:26.956Z,100.00
2023-05-10T02:58:54.693Z,100.00
2023-05-10T03:01:22.393Z,100.00
2023-05-10T03:03:50.303Z,100.00
2023-05-10T03:06:18.195Z,100.00
2023-05-10T03:08:46.847Z,100.00
2023-05-10T03:11:32.410Z,100.00
2023-05-10T03:14:15.936Z,100.00
2023-05-10T03:16:48.737Z,100.00
2023-05-10T03:19:24.167Z,100.00
2023-05-10T03:21:54.046Z,100.00
2023-05-10T03:24:24.010Z,100.00
2023-05-10T03:26:57.567Z,100.00
2023-05-10T03:29:27.577Z,100.00
2023-05-10T03:31:55.638Z,100.00
2023-05-10T03:34:25.942Z,100.00
2023-05-10T03:36:54.016Z,100.00
2023-05-10T03:39:22.236Z,100.00
2023-05-10T03:41:55.961Z,100.00
2023-05-10T03:44:23.587Z,100.00
2023-05-10T03:46:51.304Z,100.00
2023-05-10T03:49:18.935Z,100.00
2023-05-10T03:51:46.596Z,100.00
2023-05-10T03:54:14.177Z,100.00
2023-05-10T03:56:42.522Z,100.00
2023-05-10T03:59:11.519Z,100.00
2023-05-10T04:01:39.095Z,100.00
2023-05-10T04:04:06.947Z,100.00
2023-05-10T04:06:34.776Z,100.00
2023-05-10T04:09:05.269Z,100.00
2023-05-10T04:11:32.893Z,100.00
2023-05-10T04:14:00.412Z,100.00
2023-05-10T04:16:29.413Z,100.00
2023-05-10T04:18:57.100Z,100.00
2023-05-10T04:21:24.626Z,100.00
2023-05-10T04:23:52.433Z,100.00
2023-05-10T04:26:20.049Z,100.00
2023-05-10T04:28:47.657Z,100.00
2023-05-10T04:31:15.624Z,100.00
2023-05-10T04:33:44.547Z,100.00
2023-05-10T04:36:12.530Z,100.00
2023-05-10T04:38:40.189Z,100.00
2023-05-10T04:41:08.483Z,100.00
2023-05-10T04:43:37.039Z,100.00
2023-05-10T04:46:04.871Z,100.00
2023-05-10T04:48:32.695Z,100.00
2023-05-10T04:51:01.748Z,100.00
2023-05-10T04:53:29.365Z,100.00
2023-05-10T04:55:56.947Z,100.00
2023-05-10T04:58:24.550Z,100.00
2023-05-10T05:00:52.166Z,100.00
2023-05-10T05:03:19.797Z,100.00
2023-05-10T05:05:47.376Z,100.00
2023-05-10T05:08:16.535Z,100.00
2023-05-10T05:10:44.106Z,98.96
2023-05-10T05:13:11.678Z,99.36
2023-05-10T05:15:39.267Z,98.69
2023-05-10T05:18:06.895Z,98.11
2023-05-10T05:20:34.802Z,98.75
2023-05-10T05:23:02.368Z,100.00
2023-05-10T05:25:31.287Z,99.26
2023-05-10T05:27:58.886Z,98.26
2023-05-10T05:30:26.512Z,98.33
2023-05-10T05:32:54.147Z,97.79
2023-05-10T05:35:21.848Z,97.29
2023-05-10T05:37:49.358Z,97.00
2023-05-10T05:40:17.042Z,96.52
2023-05-10T05:42:46.015Z,97.18
2023-05-10T05:45:14.890Z,96.34
2023-05-10T05:47:42.680Z,96.49
2023-05-10T05:50:11.437Z,95.75
2023-05-10T05:52:39.010Z,94.75
2023-05-10T05:55:07.031Z,94.95
2023-05-10T05:57:35.265Z,95.38
2023-05-10T06:00:04.899Z,95.05
2023-05-10T06:02:40.315Z,95.37
2023-05-10T06:05:09.141Z,93.08
2023-05-10T06:07:36.750Z,93.85
2023-05-10T06:10:04.788Z,92.67
2023-05-10T06:12:32.536Z,93.46
2023-05-10T06:15:00.172Z,93.52
2023-05-10T06:17:29.721Z,93.09
2023-05-10T06:19:57.507Z,93.54
2023-05-10T06:22:25.105Z,95.10
2023-05-10T06:24:52.695Z,95.83
2023-05-10T06:27:20.247Z,95.46
2023-05-10T06:29:49.197Z,96.07
2023-05-10T06:32:18.091Z,95.63
2023-05-10T06:34:47.300Z,95.99
2023-05-10T06:37:14.924Z,96.06
2023-05-10T06:39:42.599Z,95.73
2023-05-10T06:42:10.334Z,95.40
2023-05-10T06:44:37.958Z,95.84
2023-05-10T06:47:05.626Z,94.18
2023-05-10T06:49:33.167Z,93.68
2023-05-10T06:52:02.025Z,92.29
2023-05-10T06:54:29.620Z,93.19
2023-05-10T06:56:57.194Z,92.34
2023-05-10T06:59:25.046Z,91.75
2023-05-10T07:01:52.795Z,91.67
2023-05-10T07:04:20.389Z,90.65
2023-05-10T07:06:48.211Z,90.95
2023-05-10T07:09:17.091Z,88.86
2023-05-10T07:11:44.656Z,89.82
2023-05-10T07:14:12.199Z,89.89
2023-05-10T07:16:39.806Z,88.17
2023-05-10T07:19:07.414Z,88.34
2023-05-10T07:21:36.177Z,88.02
2023-05-10T07:24:03.804Z,88.85
2023-05-10T07:26:32.775Z,89.41
2023-05-10T07:29:00.356Z,90.74
2023-05-10T07:31:28.016Z,90.53
2023-05-10T07:33:55.570Z,90.65
2023-05-10T07:36:23.167Z,90.00
2023-05-10T07:38:51.405Z,90.26
2023-05-10T07:41:19.073Z,89.98
2023-05-10T07:43:47.986Z,89.71
2023-05-10T07:46:15.620Z,88.48
2023-05-10T07:48:43.651Z,88.37
2023-05-10T07:51:11.712Z,89.94
2023-05-10T07:53:39.459Z,88.77
2023-05-10T07:56:23.169Z,88.58
2023-05-10T07:58:52.286Z,89.16
2023-05-10T08:01:20.045Z,87.70
2023-05-10T08:03:47.861Z,87.59
2023-05-10T08:06:16.381Z,85.59
2023-05-10T08:08:43.960Z,85.69
2023-05-10T08:11:11.478Z,84.85
2023-05-10T08:13:39.088Z,83.08
2023-05-10T08:16:08.246Z,83.15
2023-05-10T08:18:35.924Z,84.30
2023-05-10T08:21:03.517Z,83.50
2023-05-10T08:23:31.153Z,84.10
2023-05-10T08:25:58.770Z,83.17
2023-05-10T08:28:26.293Z,83.54
2023-05-10T08:30:53.926Z,82.65
2023-05-10T08:33:22.973Z,81.84
2023-05-10T08:35:50.514Z,81.90
2023-05-10T08:38:18.140Z,80.09
2023-05-10T08:40:46.591Z,81.02
2023-05-10T08:43:16.054Z,81.43
2023-05-10T08:45:46.256Z,81.99
2023-05-10T08:48:13.837Z,82.49
2023-05-10T08:50:44.073Z,82.20
2023-05-10T08:53:14.033Z,79.91
2023-05-10T08:55:43.618Z,81.33
2023-05-10T08:58:11.585Z,80.16
2023-05-10T09:00:39.217Z,80.73
2023-05-10T09:03:08.084Z,77.93
2023-05-10T09:05:35.712Z,77.99
2023-05-10T09:08:04.872Z,74.62
2023-05-10T09:10:32.944Z,75.64
2023-05-10T09:13:01.117Z,76.59
2023-05-10T09:15:28.664Z,74.78
2023-05-10T09:17:56.621Z,74.57
2023-05-10T09:20:24.282Z,74.59
2023-05-10T09:22:51.991Z,75.42
2023-05-10T09:25:21.600Z,75.50
2023-05-10T09:27:49.716Z,74.68
2023-05-10T09:30:18.864Z,74.29
2023-05-10T09:32:48.067Z,75.93
2023-05-10T09:35:18.492Z,74.41
2023-05-10T09:37:48.745Z,75.49
2023-05-10T09:40:18.632Z,76.53
2023-05-10T09:42:55.673Z,76.14
2023-05-10T09:45:23.500Z,76.90
2023-05-10T09:47:51.255Z,76.34
2023-05-10T09:50:18.945Z,77.60
2023-05-10T09:52:51.966Z,80.27
2023-05-10T09:55:20.778Z,81.12
2023-05-10T09:57:49.629Z,82.59
2023-05-10T10:00:21.422Z,81.87
2023-05-10T10:02:55.823Z,83.98
2023-05-10T10:05:30.152Z,84.46
2023-05-10T10:07:59.294Z,83.66
2023-05-10T10:10:27.212Z,83.25
2023-05-10T10:12:55.272Z,81.32
2023-05-10T10:15:25.347Z,79.82
2023-05-10T10:17:54.666Z,78.38
2023-05-10T10:20:24.933Z,78.05
2023-05-10T10:22:52.622Z,79.15
2023-05-10T10:25:22.807Z,80.29
2023-05-10T10:28:01.485Z,79.82
2023-05-10T10:30:37.287Z,79.95
2023-05-10T10:33:32.744Z,79.80
2023-05-10T10:36:03.558Z,79.47
2023-05-10T10:38:39.777Z,79.62
2023-05-10T10:41:12.004Z,77.98
2023-05-10T10:43:39.591Z,74.62
2023-05-10T10:46:15.920Z,71.96
2023-05-10T10:48:48.947Z,74.87
2023-05-10T10:51:16.610Z,71.23
2023-05-10T10:53:45.420Z,68.19
2023-05-10T10:56:16.235Z,68.61
2023-05-10T10:58:52.025Z,67.10
2023-05-10T11:01:21.638Z,68.17
2023-05-10T11:04:20.664Z,66.92
2023-05-10T11:06:48.408Z,67.76
2023-05-10T11:09:15.932Z,69.29
2023-05-10T11:11:55.856Z,69.28
2023-05-10T11:14:24.361Z,68.22
2023-05-10T11:16:53.830Z,66.17
2023-05-10T11:19:21.630Z,66.18
2023-05-10T11:21:50.761Z,66.60
2023-05-10T11:24:20.229Z,67.79
2023-05-10T11:26:52.317Z,67.66
2023-05-10T11:29:20.157Z,67.09
2023-05-10T11:31:49.306Z,66.18
2023-05-10T11:34:27.051Z,67.55
2023-05-10T11:36:55.949Z,66.41
2023-05-10T11:39:28.092Z,67.15
2023-05-10T11:41:56.199Z,66.07
2023-05-10T11:44:23.809Z,66.34
2023-05-10T11:46:51.824Z,66.29
2023-05-10T11:49:19.852Z,66.39
2023-05-10T11:51:48.963Z,64.51
2023-05-10T11:54:16.486Z,67.00
2023-05-10T11:56:44.099Z,65.27
2023-05-10T11:59:11.620Z,64.89
2023-05-10T12:01:39.335Z,66.08
2023-05-10T12:04:07.238Z,65.31
2023-05-10T12:06:41.625Z,65.63
2023-05-10T12:09:11.150Z,67.66
2023-05-10T12:11:42.510Z,66.13
2023-05-10T12:14:11.477Z,65.96
2023-05-10T12:16:39.147Z,64.09
2023-05-10T12:19:07.229Z,63.61
2023-05-10T12:21:34.792Z,64.58
2023-05-10T12:24:04.647Z,61.88
2023-05-10T12:26:33.961Z,59.85
2023-05-10T12:29:14.956Z,60.23
2023-05-10T12:31:56.068Z,57.99
2023-05-10T12:34:27.760Z,57.72
2023-05-10T12:36:55.773Z,57.89
2023-05-10T12:39:23.425Z,57.68
2023-05-10T12:41:52.622Z,57.18
2023-05-10T12:44:20.412Z,56.53
2023-05-10T12:46:48.695Z,56.07
2023-05-10T12:49:16.214Z,57.03
2023-05-10T12:51:43.702Z,53.84
2023-05-10T12:54:11.283Z,51.52
2023-05-10T12:56:38.937Z,49.32
2023-05-10T12:59:07.988Z,50.13
2023-05-10T13:01:35.656Z,50.33
2023-05-10T13:04:03.292Z,51.40
2023-05-10T13:06:31.690Z,49.54
2023-05-10T13:08:59.271Z,51.13
2023-05-10T13:11:26.909Z,48.47
2023-05-10T13:13:54.646Z,48.93
2023-05-10T13:16:23.664Z,47.76
2023-05-10T13:18:51.531Z,48.78
2023-05-10T13:21:19.179Z,47.58
2023-05-10T13:23:47.425Z,48.08
2023-05-10T13:26:14.992Z,46.42
2023-05-10T13:28:42.599Z,46.65
2023-05-10T13:31:10.237Z,47.58
2023-05-10T13:33:39.124Z,47.75
2023-05-10T13:36:07.936Z,48.64
2023-05-10T13:38:35.509Z,47.03
2023-05-10T13:41:03.105Z,47.19
2023-05-10T13:43:31.455Z,46.65
2023-05-10T13:45:59.247Z,47.29
2023-05-10T13:48:26.801Z,44.19
2023-05-10T13:50:55.891Z,45.95
2023-05-10T13:53:23.405Z,44.55
2023-05-10T13:55:51.301Z,44.47
2023-05-10T13:58:19.085Z,45.14
2023-05-10T14:00:46.685Z,46.83
2023-05-10T14:03:14.376Z,45.17
2023-05-10T14:05:42.559Z,44.74
2023-05-10T14:08:11.813Z,45.50
2023-05-10T14:10:39.451Z,46.31
2023-05-10T14:13:07.172Z,47.34
2023-05-10T14:15:34.736Z,47.23
2023-05-10T14:18:02.623Z,47.78
2023-05-10T14:20:30.321Z,49.63
2023-05-10T14:22:57.877Z,50.54
2023-05-10T14:25:27.019Z,52.05
2023-05-10T14:27:55.577Z,52.25
2023-05-10T14:30:23.192Z,52.10
2023-05-10T14:32:50.802Z,52.68
2023-05-10T14:35:19.707Z,53.84
2023-05-10T14:37:47.778Z,53.58
2023-05-10T14:40:16.091Z,54.83
2023-05-10T14:42:45.434Z,54.52
2023-05-10T14:45:13.437Z,52.32
2023-05-10T14:47:41.083Z,52.46
2023-05-10T14:50:09.630Z,52.01
2023-05-10T14:52:37.365Z,51.13
2023-05-10T14:55:05.374Z,49.81
2023-05-10T14:57:33.358Z,48.37
2023-05-10T15:00:02.279Z,47.39
2023-05-10T15:02:30.412Z,46.02
2023-05-10T15:04:59.356Z,45.05
2023-05-10T15:07:27.471Z,45.12
2023-05-10T15:09:55.070Z,44.96
2023-05-10T15:12:22.700Z,44.93
2023-05-10T15:14:50.324Z,45.84
2023-05-10T15:17:19.203Z,45.20
2023-05-10T15:19:46.930Z,45.49
2023-05-10T15:22:14.525Z,45.05
2023-05-10T15:24:42.184Z,46.36
2023-05-10T15:27:09.861Z,47.11
2023-05-10T15:29:37.560Z,47.65
2023-05-10T15:32:05.382Z,47.27
2023-05-10T15:34:35.781Z,47.36
2023-05-10T15:37:04.704Z,48.83
2023-05-10T15:39:32.273Z,49.57
2023-05-10T15:41:59.787Z,50.37
2023-05-10T15:44:27.415Z,50.45
2023-05-10T15:46:55.127Z,51.66
2023-05-10T15:49:22.726Z,51.98
2023-05-10T15:51:51.701Z,52.52
2023-05-10T15:54:19.274Z,53.54
2023-05-10T15:56:47.071Z,53.71
2023-05-10T15:59:14.680Z,54.06
2023-05-10T16:01:42.267Z,54.34
2023-05-10T16:04:09.852Z,54.60
2023-05-10T16:06:38.152Z,55.79
2023-05-10T16:09:07.193Z,55.76
2023-05-10T16:11:34.745Z,54.03
2023-05-10T16:14:02.284Z,52.25
2023-05-10T16:16:30.058Z,50.57
2023-05-10T16:18:58.723Z,50.71
2023-05-10T16:21:26.312Z,50.16
2023-05-10T16:23:53.861Z,50.66
2023-05-10T16:26:22.859Z,51.01
2023-05-10T16:28:50.570Z,51.36
2023-05-10T16:31:19.980Z,52.01
2023-05-10T16:33:47.662Z,51.29
2023-05-10T16:36:15.179Z,51.55
2023-05-10T16:38:42.684Z,51.14
2023-05-10T16:41:10.724Z,50.95
2023-05-10T16:43:39.614Z,51.44
2023-05-10T16:46:11.572Z,53.44
2023-05-10T16:48:39.243Z,53.37
2023-05-10T16:51:07.114Z,52.98
2023-05-10T16:53:34.702Z,53.27
2023-05-10T16:56:02.495Z,54.13
2023-05-10T16:58:30.079Z,53.68
2023-05-10T17:00:58.959Z,54.61
2023-05-10T17:03:26.742Z,55.26
2023-05-10T17:05:54.411Z,55.72
2023-05-10T17:08:23.144Z,55.30
2023-05-10T17:10:50.745Z,54.42
2023-05-10T17:13:18.566Z,54.03
2023-05-10T17:15:47.345Z,54.38
2023-05-10T17:18:16.557Z,53.96
2023-05-10T17:20:45.374Z,54.49
2023-05-10T17:23:12.943Z,56.02
2023-05-10T17:25:41.889Z,56.65
2023-05-10T17:28:09.591Z,55.55
2023-05-10T17:30:37.107Z,56.15
2023-05-10T17:33:04.878Z,56.28
2023-05-10T17:35:34.008Z,56.75
2023-05-10T17:38:01.880Z,55.70
2023-05-10T17:40:29.665Z,55.51
2023-05-10T17:42:57.233Z,56.26
2023-05-10T17:45:24.795Z,55.68
2023-05-10T17:47:52.445Z,55.12
2023-05-10T17:50:20.154Z,56.11
2023-05-10T17:52:49.143Z,56.76
2023-05-10T17:55:17.255Z,56.85
2023-05-10T17:57:45.137Z,56.98
2023-05-10T18:00:14.091Z,57.19
2023-05-10T18:02:42.405Z,56.99
2023-05-10T18:05:10.917Z,57.27
2023-05-10T18:07:38.736Z,56.90
2023-05-10T18:10:08.946Z,57.50
2023-05-10T18:12:36.479Z,57.84
2023-05-10T18:15:04.471Z,58.60
2023-05-10T18:17:33.393Z,57.34
2023-05-10T18:20:01.025Z,56.65
2023-05-10T18:22:28.685Z,56.94
2023-05-10T18:24:56.350Z,57.83
2023-05-10T18:27:25.308Z,60.08
2023-05-10T18:29:52.901Z,61.05
2023-05-10T18:32:20.499Z,63.35
2023-05-10T18:34:48.038Z,64.79
2023-05-10T18:37:15.878Z,66.85
2023-05-10T18:39:43.635Z,67.77
2023-05-10T18:42:11.236Z,68.35
2023-05-10T18:44:40.148Z,69.38
2023-05-10T18:47:08.382Z,70.54
2023-05-10T18:49:35.946Z,71.50
2023-05-10T18:52:03.595Z,72.15
2023-05-10T18:54:31.179Z,73.30
2023-05-10T18:56:58.944Z,74.74
2023-05-10T18:59:27.709Z,74.66
2023-05-10T19:01:57.450Z,75.06
2023-05-10T19:04:25.423Z,77.08
2023-05-10T19:06:53.025Z,77.18
2023-05-10T19:09:21.033Z,77.64
2023-05-10T19:11:48.626Z,78.28
2023-05-10T19:14:16.284Z,79.39
2023-05-10T19:16:44.030Z,79.86
2023-05-10T19:19:14.410Z,80.64
2023-05-10T19:21:41.973Z,81.12
2023-05-10T19:24:10.785Z,82.01
2023-05-10T19:26:38.820Z,82.29
2023-05-10T19:29:06.383Z,82.42
2023-05-10T19:31:34.424Z,82.46
2023-05-10T19:34:02.040Z,82.85
2023-05-10T19:36:30.987Z,83.02
2023-05-10T19:38:58.479Z,83.71
2023-05-10T19:41:26.156Z,84.27
2023-05-10T19:43:53.838Z,84.96
2023-05-10T19:46:21.523Z,85.67
2023-05-10T19:48:50.910Z,85.88
2023-05-10T19:51:18.692Z,86.32
2023-05-10T19:53:47.670Z,85.94
2023-05-10T19:56:16.439Z,86.25
2023-05-10T19:58:43.958Z,87.04
2023-05-10T20:01:11.562Z,87.68
2023-05-10T20:03:39.140Z,87.49
2023-05-10T20:06:06.797Z,88.04
2023-05-10T20:08:34.450Z,89.10
2023-05-10T20:11:03.874Z,88.36
2023-05-10T20:13:31.638Z,87.90
2023-05-10T20:16:00.036Z,89.31
2023-05-10T20:18:27.843Z,88.78
2023-05-10T20:20:56.076Z,88.99
2023-05-10T20:23:23.806Z,88.57
2023-05-10T20:25:51.607Z,88.63
2023-05-10T20:28:23.280Z,89.76
2023-05-10T20:30:53.225Z,89.72
2023-05-10T20:33:20.946Z,89.53
2023-05-10T20:35:49.561Z,89.83
2023-05-10T20:38:18.054Z,90.50
2023-05-10T20:40:46.432Z,90.32
2023-05-10T20:43:14.028Z,90.30
2023-05-10T20:45:43.028Z,90.36
2023-05-10T20:48:10.679Z,91.60
2023-05-10T20:50:38.193Z,91.36
2023-05-10T20:53:06.021Z,91.40
2023-05-10T20:55:33.605Z,91.68
2023-05-10T20:58:03.438Z,91.86
2023-05-10T21:00:32.416Z,92.45
2023-05-10T21:03:01.314Z,92.00
2023-05-10T21:05:29.069Z,92.08
2023-05-10T21:07:56.778Z,92.63
2023-05-10T21:10:25.497Z,92.20
2023-05-10T21:12:53.034Z,92.63
2023-05-10T21:15:22.488Z,92.80
2023-05-10T21:17:50.077Z,92.49
2023-05-10T21:20:19.204Z,93.03
2023-05-10T21:22:46.903Z,92.83
2023-05-10T21:25:14.758Z,92.74
2023-05-10T21:27:42.345Z,92.85
2023-05-10T21:30:10.945Z,92.91
2023-05-10T21:32:38.549Z,92.63
2023-05-10T21:35:07.268Z,92.75
2023-05-10T21:37:36.126Z,93.38
2023-05-10T21:40:04.629Z,93.09
2023-05-10T21:42:32.503Z,93.50
2023-05-10T21:45:00.057Z,93.79
2023-05-10T21:47:27.972Z,94.24
2023-05-10T21:49:55.532Z,94.08
2023-05-10T21:52:23.150Z,94.16
2023-05-10T21:54:51.994Z,94.29
2023-05-10T21:57:21.337Z,94.31
2023-05-10T21:59:48.995Z,94.86
2023-05-10T22:02:16.806Z,94.25
2023-05-10T22:04:44.397Z,94.26
2023-05-10T22:07:11.973Z,94.52
2023-05-10T22:09:39.543Z,95.07
2023-05-10T22:12:08.517Z,95.11
2023-05-10T22:14:36.167Z,95.36
2023-05-10T22:17:03.726Z,95.35
2023-05-10T22:19:31.284Z,95.44
2023-05-10T22:21:58.836Z,95.04
2023-05-10T22:24:26.421Z,95.26
2023-05-10T22:26:55.085Z,95.23
2023-05-10T22:29:24.151Z,94.62
2023-05-10T22:31:51.851Z,95.40
2023-05-10T22:34:19.409Z,95.56
2023-05-10T22:36:46.965Z,95.62
2023-05-10T22:39:14.474Z,95.31
2023-05-10T22:41:42.022Z,95.54
2023-05-10T22:44:09.892Z,96.07
2023-05-10T22:46:39.388Z,95.28
2023-05-10T22:49:07.207Z,95.40
2023-05-10T22:51:35.407Z,95.61
2023-05-10T22:54:03.052Z,95.75
2023-05-10T22:56:31.585Z,96.58
2023-05-10T22:58:59.167Z,95.94
2023-05-10T23:01:26.843Z,96.16
2023-05-10T23:03:56.874Z,96.41
2023-05-10T23:06:24.396Z,95.94
2023-05-10T23:08:51.981Z,96.38
2023-05-10T23:11:19.533Z,96.45
2023-05-10T23:13:47.084Z,97.15
2023-05-10T23:16:14.779Z,97.32
2023-05-10T23:18:42.392Z,96.82
2023-05-10T23:21:11.321Z,97.69
2023-05-10T23:23:38.903Z,97.36
2023-05-10T23:26:06.541Z,97.75
2023-05-10T23:28:34.178Z,97.63
2023-05-10T23:31:01.827Z,98.14
2023-05-10T23:33:29.418Z,98.17
2023-05-10T23:35:56.940Z,98.39
2023-05-10T23:38:26.073Z,98.87
2023-05-10T23:40:54.356Z,98.94
2023-05-10T23:43:21.934Z,99.16
2023-05-10T23:45:59.367Z,98.83
2023-05-10T23:48:27.109Z,99.42
2023-05-10T23:50:54.658Z,99.29
2023-05-10T23:53:22.177Z,99.78
2023-05-10T23:55:51.131Z,99.50
2023-05-10T23:58:18.685Z,99.62
